This is the latest recevied weather packets stored in our database for station/object KE2GQQ. If no packets are shown the sender has not sent any weather packets the latest 10 day(s).
| Time | Temp. | Humidity | Pressure | Rain* | Wind** | Luminosity | Snow |
|---|---|---|---|---|---|---|---|
| 1778042117 | 15.56° C | 78% | 1010.8 hPa | 0 mm | - | 0 W/m² | - |
| 1778041518 | 16.11° C | 78% | 1010.8 hPa | 0 mm | - | 0 W/m² | - |
| 1778040918 | 16.11° C | 77% | 1010.7 hPa | 0 mm | - | 0 W/m² | - |
| 1778039115 | 16.67° C | 75% | 1010.8 hPa | 0 mm | - | 0 W/m² | - |
| 1778034337 | 18.33° C | 68% | 1010.5 hPa | 0 mm | - | 0 W/m² | - |
| 1778027736 | 20° C | 62% | 1009.5 hPa | 0 mm | - | 0 W/m² | - |
| 1778025917 | 19.44° C | 63% | 1009.3 hPa | 0 mm | - | 0 W/m² | - |
| 1778024717 | 19.44° C | 63% | 1009.1 hPa | 0 mm | - | 2 W/m² | - |
| 1778022937 | 19.44° C | 63% | 1008.7 hPa | 0 mm | - | 10 W/m² | - |
| 1778022317 | 20° C | 63% | 1008.5 hPa | 0 mm | - | 12 W/m² | - |
| 1778019318 | 21.67° C | 59% | 1008 hPa | 0 mm | - | 56 W/m² | - |
| 1778015716 | 22.22° C | 56% | 1007.9 hPa | 0 mm | - | 37 W/m² | - |
| 1778015116 | 22.78° C | 56% | 1007.7 hPa | 0 mm | - | 41 W/m² | - |
| 1778009738 | 23.33° C | 55% | 1008.7 hPa | 0 mm | - | 47 W/m² | - |
| 1778007319 | 23.89° C | 54% | 1009.2 hPa | 0 mm | - | 76 W/m² | - |
| 1778002516 | 25° C | 52% | 1009.7 hPa | 0 mm | - | 130 W/m² | - |
| 1778000117 | 25° C | 51% | 1010 hPa | 0 mm | - | 62 W/m² | - |
| 1777991137 | 22.78° C | 57% | 1011.3 hPa | 0 mm | - | 104 W/m² | - |
| 1777989337 | 21.67° C | 58% | 1011 hPa | 0 mm | - | 636 W/m² | - |
| 1777988717 | 21.11° C | 59% | 1011.1 hPa | 0 mm | - | 611 W/m² | - |
| 1777986317 | 20.56° C | 62% | 1011 hPa | 0 mm | - | 484 W/m² | - |
| 1777980316 | 14.44° C | 79% | 1011.3 hPa | 0 mm | - | 28 W/m² | - |
| 1777979716 | 13.89° C | 81% | 1011.3 hPa | 0 mm | - | 37 W/m² | - |
| 1777977316 | 12.78° C | 86% | 1011.1 hPa | 0 mm | - | 16 W/m² | - |
| 1777973117 | 12.22° C | 87% | 1010.3 hPa | 0 mm | - | 0 W/m² | - |
* Rain latest hour (hover to see other rain measurements)
** Current wind speed in m/s (hover to see current wind gust speed)